sensor_id;sensor_type;location;lat;lon;timestamp;P1;durP1;ratioP1;P2;durP2;ratioP2
70545;SDS011;58098;51.680;5.134;2023-12-14T00:02:05;35.83;;;16.83;;
70545;SDS011;58098;51.680;5.134;2023-12-14T00:04:30;43.80;;;17.93;;
70545;SDS011;58098;51.680;5.134;2023-12-14T00:06:55;34.97;;;15.73;;
70545;SDS011;58098;51.680;5.134;2023-12-14T00:09:21;32.73;;;15.43;;
70545;SDS011;58098;51.680;5.134;2023-12-14T00:11:46;37.23;;;16.10;;
70545;SDS011;58098;51.680;5.134;2023-12-14T00:14:11;42.60;;;18.97;;
70545;SDS011;58098;51.680;5.134;2023-12-14T00:16:37;31.80;;;16.00;;
70545;SDS011;58098;51.680;5.134;2023-12-14T00:19:02;37.37;;;17.47;;
70545;SDS011;58098;51.680;5.134;2023-12-14T00:21:28;35.90;;;17.27;;
70545;SDS011;58098;51.680;5.134;2023-12-14T00:23:53;37.60;;;18.70;;
70545;SDS011;58098;51.680;5.134;2023-12-14T00:26:18;33.17;;;15.10;;
70545;SDS011;58098;51.680;5.134;2023-12-14T00:28:43;30.00;;;14.10;;
70545;SDS011;58098;51.680;5.134;2023-12-14T00:31:09;35.77;;;15.97;;
70545;SDS011;58098;51.680;5.134;2023-12-14T00:33:34;29.73;;;16.27;;
70545;SDS011;58098;51.680;5.134;2023-12-14T00:36:00;27.27;;;12.83;;
70545;SDS011;58098;51.680;5.134;2023-12-14T00:38:25;26.53;;;13.47;;
70545;SDS011;58098;51.680;5.134;2023-12-14T00:40:50;23.13;;;11.77;;
70545;SDS011;58098;51.680;5.134;2023-12-14T00:43:16;26.87;;;11.97;;
70545;SDS011;58098;51.680;5.134;2023-12-14T00:45:41;25.77;;;12.83;;
70545;SDS011;58098;51.680;5.134;2023-12-14T00:48:07;29.00;;;13.17;;
70545;SDS011;58098;51.680;5.134;2023-12-14T00:50:32;26.98;;;13.40;;
70545;SDS011;58098;51.680;5.134;2023-12-14T00:52:57;30.97;;;13.63;;
70545;SDS011;58098;51.680;5.134;2023-12-14T00:55:23;21.60;;;12.27;;
70545;SDS011;58098;51.680;5.134;2023-12-14T00:57:48;21.33;;;10.83;;
70545;SDS011;58098;51.680;5.134;2023-12-14T01:00:14;22.73;;;11.80;;
70545;SDS011;58098;51.680;5.134;2023-12-14T01:02:39;21.00;;;11.13;;
70545;SDS011;58098;51.680;5.134;2023-12-14T01:05:05;19.30;;;10.27;;
70545;SDS011;58098;51.680;5.134;2023-12-14T01:07:30;18.77;;;11.37;;
70545;SDS011;58098;51.680;5.134;2023-12-14T01:09:55;17.43;;;10.70;;
70545;SDS011;58098;51.680;5.134;2023-12-14T01:12:21;23.37;;;12.77;;
70545;SDS011;58098;51.680;5.134;2023-12-14T01:14:46;21.00;;;11.97;;
70545;SDS011;58098;51.680;5.134;2023-12-14T01:17:11;16.17;;;9.85;;
70545;SDS011;58098;51.680;5.134;2023-12-14T01:19:39;21.60;;;11.23;;
70545;SDS011;58098;51.680;5.134;2023-12-14T01:22:05;21.10;;;11.88;;
70545;SDS011;58098;51.680;5.134;2023-12-14T01:24:31;24.23;;;13.27;;
70545;SDS011;58098;51.680;5.134;2023-12-14T01:26:56;23.00;;;12.00;;
70545;SDS011;58098;51.680;5.134;2023-12-14T01:29:21;20.23;;;11.37;;
70545;SDS011;58098;51.680;5.134;2023-12-14T01:31:47;19.93;;;12.00;;
70545;SDS011;58098;51.680;5.134;2023-12-14T01:34:12;16.90;;;9.30;;
70545;SDS011;58098;51.680;5.134;2023-12-14T01:36:37;19.43;;;10.63;;
70545;SDS011;58098;51.680;5.134;2023-12-14T01:39:02;21.57;;;12.47;;
70545;SDS011;58098;51.680;5.134;2023-12-14T01:41:28;20.17;;;11.07;;
70545;SDS011;58098;51.680;5.134;2023-12-14T01:43:53;24.00;;;12.70;;
70545;SDS011;58098;51.680;5.134;2023-12-14T01:46:18;23.90;;;12.10;;
70545;SDS011;58098;51.680;5.134;2023-12-14T01:48:44;23.17;;;13.63;;
70545;SDS011;58098;51.680;5.134;2023-12-14T01:51:09;21.63;;;12.60;;
70545;SDS011;58098;51.680;5.134;2023-12-14T01:53:34;23.40;;;12.00;;
70545;SDS011;58098;51.680;5.134;2023-12-14T01:56:00;19.30;;;11.43;;
70545;SDS011;58098;51.680;5.134;2023-12-14T01:58:25;24.03;;;12.93;;
70545;SDS011;58098;51.680;5.134;2023-12-14T02:03:43;21.70;;;11.48;;
70545;SDS011;58098;51.680;5.134;2023-12-14T02:06:13;20.17;;;11.55;;
70545;SDS011;58098;51.680;5.134;2023-12-14T02:08:39;21.17;;;11.30;;
70545;SDS011;58098;51.680;5.134;2023-12-14T02:11:04;18.80;;;10.97;;
70545;SDS011;58098;51.680;5.134;2023-12-14T02:13:29;17.83;;;10.20;;
70545;SDS011;58098;51.680;5.134;2023-12-14T02:15:55;23.03;;;12.93;;
70545;SDS011;58098;51.680;5.134;2023-12-14T02:18:20;17.27;;;10.60;;
70545;SDS011;58098;51.680;5.134;2023-12-14T02:20:45;24.60;;;11.57;;
70545;SDS011;58098;51.680;5.134;2023-12-14T02:23:11;21.27;;;13.80;;
70545;SDS011;58098;51.680;5.134;2023-12-14T02:25:36;20.47;;;12.43;;
70545;SDS011;58098;51.680;5.134;2023-12-14T02:28:01;23.67;;;12.63;;
70545;SDS011;58098;51.680;5.134;2023-12-14T02:30:27;23.37;;;11.63;;
70545;SDS011;58098;51.680;5.134;2023-12-14T02:32:52;23.47;;;12.17;;
70545;SDS011;58098;51.680;5.134;2023-12-14T02:35:17;19.07;;;10.97;;
70545;SDS011;58098;51.680;5.134;2023-12-14T02:37:43;22.33;;;11.60;;
70545;SDS011;58098;51.680;5.134;2023-12-14T02:40:09;21.50;;;13.53;;
70545;SDS011;58098;51.680;5.134;2023-12-14T02:42:35;23.27;;;11.38;;
70545;SDS011;58098;51.680;5.134;2023-12-14T02:45:01;21.23;;;12.52;;
70545;SDS011;58098;51.680;5.134;2023-12-14T02:47:27;19.20;;;11.37;;
70545;SDS011;58098;51.680;5.134;2023-12-14T02:49:54;18.30;;;11.20;;
70545;SDS011;58098;51.680;5.134;2023-12-14T02:52:19;24.60;;;12.95;;
70545;SDS011;58098;51.680;5.134;2023-12-14T02:54:45;19.60;;;11.77;;
70545;SDS011;58098;51.680;5.134;2023-12-14T02:57:10;20.73;;;12.70;;
70545;SDS011;58098;51.680;5.134;2023-12-14T02:59:35;20.10;;;11.80;;
70545;SDS011;58098;51.680;5.134;2023-12-14T03:02:01;19.37;;;11.67;;
70545;SDS011;58098;51.680;5.134;2023-12-14T03:04:26;21.73;;;12.07;;
70545;SDS011;58098;51.680;5.134;2023-12-14T03:06:52;18.37;;;11.00;;
70545;SDS011;58098;51.680;5.134;2023-12-14T03:09:17;19.20;;;11.87;;
70545;SDS011;58098;51.680;5.134;2023-12-14T03:11:44;20.77;;;12.30;;
70545;SDS011;58098;51.680;5.134;2023-12-14T03:14:09;19.17;;;11.97;;
70545;SDS011;58098;51.680;5.134;2023-12-14T03:16:35;24.67;;;12.10;;
70545;SDS011;58098;51.680;5.134;2023-12-14T03:19:00;19.40;;;11.32;;
70545;SDS011;58098;51.680;5.134;2023-12-14T03:21:26;20.63;;;12.57;;
70545;SDS011;58098;51.680;5.134;2023-12-14T03:23:52;21.73;;;13.30;;
70545;SDS011;58098;51.680;5.134;2023-12-14T03:26:17;21.83;;;13.17;;
70545;SDS011;58098;51.680;5.134;2023-12-14T03:28:43;21.30;;;12.02;;
70545;SDS011;58098;51.680;5.134;2023-12-14T03:31:10;21.47;;;12.50;;
70545;SDS011;58098;51.680;5.134;2023-12-14T03:33:37;22.60;;;14.23;;
70545;SDS011;58098;51.680;5.134;2023-12-14T03:36:02;21.63;;;12.20;;
70545;SDS011;58098;51.680;5.134;2023-12-14T03:38:28;23.20;;;12.53;;
70545;SDS011;58098;51.680;5.134;2023-12-14T03:40:53;20.77;;;13.00;;
70545;SDS011;58098;51.680;5.134;2023-12-14T03:43:19;23.87;;;13.60;;
70545;SDS011;58098;51.680;5.134;2023-12-14T03:45:44;21.07;;;12.87;;
70545;SDS011;58098;51.680;5.134;2023-12-14T03:48:10;24.60;;;13.47;;
70545;SDS011;58098;51.680;5.134;2023-12-14T03:50:35;24.57;;;13.57;;
70545;SDS011;58098;51.680;5.134;2023-12-14T03:53:00;21.43;;;11.87;;
70545;SDS011;58098;51.680;5.134;2023-12-14T03:55:26;23.73;;;13.80;;
70545;SDS011;58098;51.680;5.134;2023-12-14T03:57:51;25.03;;;14.83;;
70545;SDS011;58098;51.680;5.134;2023-12-14T04:00:17;23.43;;;14.13;;
70545;SDS011;58098;51.680;5.134;2023-12-14T04:02:42;24.27;;;12.73;;
70545;SDS011;58098;51.680;5.134;2023-12-14T04:05:08;25.17;;;13.77;;
70545;SDS011;58098;51.680;5.134;2023-12-14T04:07:37;21.23;;;12.57;;
70545;SDS011;58098;51.680;5.134;2023-12-14T04:10:09;20.30;;;11.40;;
70545;SDS011;58098;51.680;5.134;2023-12-14T04:12:35;24.73;;;13.93;;
70545;SDS011;58098;51.680;5.134;2023-12-14T04:15:04;23.23;;;12.63;;
70545;SDS011;58098;51.680;5.134;2023-12-14T04:17:31;25.08;;;15.93;;
70545;SDS011;58098;51.680;5.134;2023-12-14T04:19:56;19.73;;;11.27;;
70545;SDS011;58098;51.680;5.134;2023-12-14T04:22:22;20.63;;;12.93;;
70545;SDS011;58098;51.680;5.134;2023-12-14T04:24:47;20.80;;;12.37;;
70545;SDS011;58098;51.680;5.134;2023-12-14T04:27:13;23.83;;;15.03;;
70545;SDS011;58098;51.680;5.134;2023-12-14T04:29:39;22.00;;;13.00;;
70545;SDS011;58098;51.680;5.134;2023-12-14T04:32:05;22.77;;;14.38;;
70545;SDS011;58098;51.680;5.134;2023-12-14T04:34:30;22.37;;;13.37;;
70545;SDS011;58098;51.680;5.134;2023-12-14T04:36:56;20.33;;;12.77;;
70545;SDS011;58098;51.680;5.134;2023-12-14T04:39:23;21.23;;;13.23;;
70545;SDS011;58098;51.680;5.134;2023-12-14T04:41:50;24.52;;;13.63;;
70545;SDS011;58098;51.680;5.134;2023-12-14T04:44:15;21.57;;;12.27;;
70545;SDS011;58098;51.680;5.134;2023-12-14T04:46:41;22.77;;;13.55;;
70545;SDS011;58098;51.680;5.134;2023-12-14T04:49:06;24.03;;;14.13;;
70545;SDS011;58098;51.680;5.134;2023-12-14T04:51:31;20.83;;;12.43;;
70545;SDS011;58098;51.680;5.134;2023-12-14T04:53:57;20.37;;;12.67;;
70545;SDS011;58098;51.680;5.134;2023-12-14T04:56:22;21.37;;;13.20;;
70545;SDS011;58098;51.680;5.134;2023-12-14T04:58:48;19.85;;;12.63;;
70545;SDS011;58098;51.680;5.134;2023-12-14T05:01:13;21.73;;;12.97;;
70545;SDS011;58098;51.680;5.134;2023-12-14T05:03:39;23.20;;;12.67;;
70545;SDS011;58098;51.680;5.134;2023-12-14T05:06:04;22.43;;;12.93;;
70545;SDS011;58098;51.680;5.134;2023-12-14T05:08:30;24.57;;;13.53;;
70545;SDS011;58098;51.680;5.134;2023-12-14T05:10:55;20.40;;;11.93;;
70545;SDS011;58098;51.680;5.134;2023-12-14T05:13:21;25.13;;;13.10;;
70545;SDS011;58098;51.680;5.134;2023-12-14T05:15:46;24.55;;;13.38;;
70545;SDS011;58098;51.680;5.134;2023-12-14T05:18:11;23.97;;;14.03;;
70545;SDS011;58098;51.680;5.134;2023-12-14T05:20:37;26.50;;;15.63;;
70545;SDS011;58098;51.680;5.134;2023-12-14T05:23:03;25.77;;;13.43;;
70545;SDS011;58098;51.680;5.134;2023-12-14T05:25:28;23.87;;;12.30;;
70545;SDS011;58098;51.680;5.134;2023-12-14T05:27:53;25.58;;;16.05;;
70545;SDS011;58098;51.680;5.134;2023-12-14T05:30:19;25.30;;;13.00;;
70545;SDS011;58098;51.680;5.134;2023-12-14T05:32:44;26.10;;;13.07;;
70545;SDS011;58098;51.680;5.134;2023-12-14T05:35:10;27.73;;;14.57;;
70545;SDS011;58098;51.680;5.134;2023-12-14T05:37:38;33.42;;;13.98;;
70545;SDS011;58098;51.680;5.134;2023-12-14T05:40:04;23.73;;;13.50;;
70545;SDS011;58098;51.680;5.134;2023-12-14T05:42:30;29.30;;;15.48;;
70545;SDS011;58098;51.680;5.134;2023-12-14T05:44:55;28.67;;;13.53;;
70545;SDS011;58098;51.680;5.134;2023-12-14T05:47:20;23.20;;;12.83;;
70545;SDS011;58098;51.680;5.134;2023-12-14T05:49:46;28.83;;;13.60;;
70545;SDS011;58098;51.680;5.134;2023-12-14T05:52:11;25.37;;;13.77;;
70545;SDS011;58098;51.680;5.134;2023-12-14T05:54:37;27.80;;;13.63;;
70545;SDS011;58098;51.680;5.134;2023-12-14T05:57:03;32.93;;;11.83;;
70545;SDS011;58098;51.680;5.134;2023-12-14T05:59:29;27.33;;;13.13;;
70545;SDS011;58098;51.680;5.134;2023-12-14T06:01:57;20.07;;;10.77;;
70545;SDS011;58098;51.680;5.134;2023-12-14T06:04:23;23.75;;;12.88;;
70545;SDS011;58098;51.680;5.134;2023-12-14T06:06:49;23.83;;;11.95;;
70545;SDS011;58098;51.680;5.134;2023-12-14T06:09:14;22.50;;;11.20;;
70545;SDS011;58098;51.680;5.134;2023-12-14T06:11:39;25.03;;;10.40;;
70545;SDS011;58098;51.680;5.134;2023-12-14T06:14:05;22.30;;;11.87;;
70545;SDS011;58098;51.680;5.134;2023-12-14T06:16:30;24.47;;;11.67;;
70545;SDS011;58098;51.680;5.134;2023-12-14T06:18:55;22.63;;;11.07;;
70545;SDS011;58098;51.680;5.134;2023-12-14T06:21:21;25.60;;;12.60;;
70545;SDS011;58098;51.680;5.134;2023-12-14T06:23:46;24.90;;;10.30;;
70545;SDS011;58098;51.680;5.134;2023-12-14T06:26:11;21.45;;;10.02;;
70545;SDS011;58098;51.680;5.134;2023-12-14T06:28:37;21.03;;;9.77;;
70545;SDS011;58098;51.680;5.134;2023-12-14T06:31:02;23.57;;;11.07;;
70545;SDS011;58098;51.680;5.134;2023-12-14T06:33:27;20.87;;;10.77;;
70545;SDS011;58098;51.680;5.134;2023-12-14T06:35:53;17.70;;;9.10;;
70545;SDS011;58098;51.680;5.134;2023-12-14T06:38:18;23.17;;;11.10;;
70545;SDS011;58098;51.680;5.134;2023-12-14T06:40:44;24.58;;;10.52;;
70545;SDS011;58098;51.680;5.134;2023-12-14T06:43:09;27.17;;;12.53;;
70545;SDS011;58098;51.680;5.134;2023-12-14T06:45:36;20.87;;;10.40;;
70545;SDS011;58098;51.680;5.134;2023-12-14T06:48:02;21.40;;;10.48;;
70545;SDS011;58098;51.680;5.134;2023-12-14T06:50:28;20.02;;;10.02;;
70545;SDS011;58098;51.680;5.134;2023-12-14T06:52:53;17.80;;;9.53;;
70545;SDS011;58098;51.680;5.134;2023-12-14T06:55:18;16.93;;;9.97;;
70545;SDS011;58098;51.680;5.134;2023-12-14T06:57:44;19.67;;;11.80;;
70545;SDS011;58098;51.680;5.134;2023-12-14T07:00:12;17.27;;;9.25;;
70545;SDS011;58098;51.680;5.134;2023-12-14T07:02:38;16.45;;;10.20;;
70545;SDS011;58098;51.680;5.134;2023-12-14T07:05:04;15.47;;;8.80;;
70545;SDS011;58098;51.680;5.134;2023-12-14T07:07:29;16.17;;;9.43;;
70545;SDS011;58098;51.680;5.134;2023-12-14T07:09:55;15.73;;;9.47;;
70545;SDS011;58098;51.680;5.134;2023-12-14T07:12:20;15.77;;;10.13;;
70545;SDS011;58098;51.680;5.134;2023-12-14T07:14:45;17.00;;;9.80;;
70545;SDS011;58098;51.680;5.134;2023-12-14T07:17:10;18.53;;;9.77;;
70545;SDS011;58098;51.680;5.134;2023-12-14T07:19:36;13.63;;;8.47;;
70545;SDS011;58098;51.680;5.134;2023-12-14T07:22:01;16.07;;;9.63;;
70545;SDS011;58098;51.680;5.134;2023-12-14T07:24:27;17.63;;;8.50;;
70545;SDS011;58098;51.680;5.134;2023-12-14T07:26:52;16.20;;;9.80;;
70545;SDS011;58098;51.680;5.134;2023-12-14T07:29:17;16.50;;;9.73;;
70545;SDS011;58098;51.680;5.134;2023-12-14T07:31:43;23.55;;;12.52;;
70545;SDS011;58098;51.680;5.134;2023-12-14T07:34:08;19.20;;;10.27;;
70545;SDS011;58098;51.680;5.134;2023-12-14T07:36:33;15.40;;;8.40;;
70545;SDS011;58098;51.680;5.134;2023-12-14T07:38:59;17.03;;;10.93;;
70545;SDS011;58098;51.680;5.134;2023-12-14T07:41:26;17.52;;;10.52;;
70545;SDS011;58098;51.680;5.134;2023-12-14T07:43:54;16.48;;;9.75;;
70545;SDS011;58098;51.680;5.134;2023-12-14T07:46:20;22.20;;;11.80;;
70545;SDS011;58098;51.680;5.134;2023-12-14T07:48:45;16.33;;;9.80;;
70545;SDS011;58098;51.680;5.134;2023-12-14T07:51:11;19.10;;;10.43;;
70545;SDS011;58098;51.680;5.134;2023-12-14T07:53:36;13.80;;;8.87;;
70545;SDS011;58098;51.680;5.134;2023-12-14T07:56:02;15.47;;;9.10;;
70545;SDS011;58098;51.680;5.134;2023-12-14T07:58:27;16.15;;;10.52;;
70545;SDS011;58098;51.680;5.134;2023-12-14T08:00:53;16.90;;;11.20;;
70545;SDS011;58098;51.680;5.134;2023-12-14T08:03:18;15.20;;;9.37;;
70545;SDS011;58098;51.680;5.134;2023-12-14T08:05:43;15.20;;;9.17;;
70545;SDS011;58098;51.680;5.134;2023-12-14T08:08:09;14.65;;;9.35;;
70545;SDS011;58098;51.680;5.134;2023-12-14T08:10:34;14.10;;;8.43;;
70545;SDS011;58098;51.680;5.134;2023-12-14T08:13:00;16.33;;;10.43;;
70545;SDS011;58098;51.680;5.134;2023-12-14T08:15:25;16.20;;;9.27;;
70545;SDS011;58098;51.680;5.134;2023-12-14T08:17:50;18.00;;;10.20;;
70545;SDS011;58098;51.680;5.134;2023-12-14T08:20:16;16.10;;;10.43;;
70545;SDS011;58098;51.680;5.134;2023-12-14T08:22:41;14.13;;;10.00;;
70545;SDS011;58098;51.680;5.134;2023-12-14T08:25:10;16.42;;;9.60;;
70545;SDS011;58098;51.680;5.134;2023-12-14T08:27:37;21.77;;;11.63;;
70545;SDS011;58098;51.680;5.134;2023-12-14T08:30:03;19.33;;;9.97;;
70545;SDS011;58098;51.680;5.134;2023-12-14T08:32:28;12.82;;;9.30;;
70545;SDS011;58098;51.680;5.134;2023-12-14T08:34:53;12.27;;;8.37;;
70545;SDS011;58098;51.680;5.134;2023-12-14T08:37:19;17.73;;;10.13;;
70545;SDS011;58098;51.680;5.134;2023-12-14T08:39:44;16.90;;;9.80;;
70545;SDS011;58098;51.680;5.134;2023-12-14T08:42:10;17.70;;;10.83;;
70545;SDS011;58098;51.680;5.134;2023-12-14T08:44:38;16.10;;;9.80;;
70545;SDS011;58098;51.680;5.134;2023-12-14T08:47:04;17.85;;;10.52;;
70545;SDS011;58098;51.680;5.134;2023-12-14T08:49:30;14.57;;;9.20;;
70545;SDS011;58098;51.680;5.134;2023-12-14T08:51:55;15.63;;;10.02;;
70545;SDS011;58098;51.680;5.134;2023-12-14T08:54:21;19.63;;;11.30;;
70545;SDS011;58098;51.680;5.134;2023-12-14T08:56:46;14.07;;;9.50;;
70545;SDS011;58098;51.680;5.134;2023-12-14T08:59:12;17.92;;;10.35;;
70545;SDS011;58098;51.680;5.134;2023-12-14T09:01:38;15.33;;;9.10;;
70545;SDS011;58098;51.680;5.134;2023-12-14T09:04:03;14.15;;;8.93;;
70545;SDS011;58098;51.680;5.134;2023-12-14T09:06:29;14.93;;;9.67;;
70545;SDS011;58098;51.680;5.134;2023-12-14T09:08:54;15.27;;;9.17;;
70545;SDS011;58098;51.680;5.134;2023-12-14T09:11:19;13.40;;;8.70;;
70545;SDS011;58098;51.680;5.134;2023-12-14T09:13:45;13.00;;;8.33;;
70545;SDS011;58098;51.680;5.134;2023-12-14T09:16:10;14.13;;;9.87;;
70545;SDS011;58098;51.680;5.134;2023-12-14T09:18:35;14.65;;;8.95;;
70545;SDS011;58098;51.680;5.134;2023-12-14T09:21:01;14.03;;;8.30;;
70545;SDS011;58098;51.680;5.134;2023-12-14T09:23:26;14.00;;;8.67;;
70545;SDS011;58098;51.680;5.134;2023-12-14T09:25:52;13.00;;;8.83;;
70545;SDS011;58098;51.680;5.134;2023-12-14T09:28:17;13.27;;;8.43;;
70545;SDS011;58098;51.680;5.134;2023-12-14T09:30:43;11.90;;;7.83;;
70545;SDS011;58098;51.680;5.134;2023-12-14T09:33:09;11.40;;;7.53;;
70545;SDS011;58098;51.680;5.134;2023-12-14T09:35:35;11.23;;;7.73;;
70545;SDS011;58098;51.680;5.134;2023-12-14T09:38:04;12.05;;;7.80;;
70545;SDS011;58098;51.680;5.134;2023-12-14T09:40:31;12.35;;;8.18;;
70545;SDS011;58098;51.680;5.134;2023-12-14T09:42:56;10.93;;;7.77;;
70545;SDS011;58098;51.680;5.134;2023-12-14T09:45:27;16.10;;;8.57;;
70545;SDS011;58098;51.680;5.134;2023-12-14T09:47:54;16.23;;;8.63;;
70545;SDS011;58098;51.680;5.134;2023-12-14T09:50:23;12.30;;;7.47;;
70545;SDS011;58098;51.680;5.134;2023-12-14T09:52:48;12.60;;;7.70;;
70545;SDS011;58098;51.680;5.134;2023-12-14T09:55:14;14.00;;;8.77;;
70545;SDS011;58098;51.680;5.134;2023-12-14T09:57:40;12.60;;;8.17;;
70545;SDS011;58098;51.680;5.134;2023-12-14T10:00:06;13.63;;;9.53;;
70545;SDS011;58098;51.680;5.134;2023-12-14T10:02:35;13.77;;;8.87;;
70545;SDS011;58098;51.680;5.134;2023-12-14T10:05:00;13.13;;;8.30;;
70545;SDS011;58098;51.680;5.134;2023-12-14T10:07:26;11.23;;;8.37;;
70545;SDS011;58098;51.680;5.134;2023-12-14T10:09:51;13.97;;;7.30;;
70545;SDS011;58098;51.680;5.134;2023-12-14T10:12:18;11.00;;;7.90;;
70545;SDS011;58098;51.680;5.134;2023-12-14T10:14:43;10.83;;;8.17;;
70545;SDS011;58098;51.680;5.134;2023-12-14T10:17:19;10.43;;;7.73;;
70545;SDS011;58098;51.680;5.134;2023-12-14T10:19:46;11.93;;;7.78;;
70545;SDS011;58098;51.680;5.134;2023-12-14T10:22:16;13.05;;;8.15;;
70545;SDS011;58098;51.680;5.134;2023-12-14T10:24:45;15.43;;;8.77;;
70545;SDS011;58098;51.680;5.134;2023-12-14T10:27:12;12.43;;;8.47;;
70545;SDS011;58098;51.680;5.134;2023-12-14T10:29:39;13.80;;;8.52;;
70545;SDS011;58098;51.680;5.134;2023-12-14T10:32:05;13.80;;;8.90;;
70545;SDS011;58098;51.680;5.134;2023-12-14T10:34:34;13.80;;;9.07;;
70545;SDS011;58098;51.680;5.134;2023-12-14T10:37:01;12.02;;;8.70;;
70545;SDS011;58098;51.680;5.134;2023-12-14T10:39:29;13.57;;;9.20;;
70545;SDS011;58098;51.680;5.134;2023-12-14T10:41:55;13.75;;;8.57;;
70545;SDS011;58098;51.680;5.134;2023-12-14T10:44:23;12.52;;;8.98;;
70545;SDS011;58098;51.680;5.134;2023-12-14T10:46:51;12.23;;;8.57;;
70545;SDS011;58098;51.680;5.134;2023-12-14T10:49:26;14.52;;;9.88;;
70545;SDS011;58098;51.680;5.134;2023-12-14T10:51:52;14.97;;;9.63;;
70545;SDS011;58098;51.680;5.134;2023-12-14T10:54:20;14.95;;;9.20;;
70545;SDS011;58098;51.680;5.134;2023-12-14T10:56:48;14.77;;;7.97;;
70545;SDS011;58098;51.680;5.134;2023-12-14T10:59:15;12.10;;;7.93;;
70545;SDS011;58098;51.680;5.134;2023-12-14T11:01:42;13.95;;;8.23;;
70545;SDS011;58098;51.680;5.134;2023-12-14T11:04:07;12.73;;;7.47;;
70545;SDS011;58098;51.680;5.134;2023-12-14T11:06:38;13.30;;;8.30;;
70545;SDS011;58098;51.680;5.134;2023-12-14T11:09:05;13.55;;;8.55;;
70545;SDS011;58098;51.680;5.134;2023-12-14T11:11:41;13.02;;;9.05;;
70545;SDS011;58098;51.680;5.134;2023-12-14T11:14:07;14.95;;;8.07;;
70545;SDS011;58098;51.680;5.134;2023-12-14T11:16:35;12.87;;;8.27;;
70545;SDS011;58098;51.680;5.134;2023-12-14T11:19:44;15.35;;;9.60;;
70545;SDS011;58098;51.680;5.134;2023-12-14T11:24:34;14.43;;;8.73;;
70545;SDS011;58098;51.680;5.134;2023-12-14T11:27:06;15.95;;;9.40;;
70545;SDS011;58098;51.680;5.134;2023-12-14T11:29:32;13.73;;;8.80;;
70545;SDS011;58098;51.680;5.134;2023-12-14T11:31:58;14.23;;;8.82;;
70545;SDS011;58098;51.680;5.134;2023-12-14T11:34:26;14.10;;;9.60;;
70545;SDS011;58098;51.680;5.134;2023-12-14T11:36:52;14.32;;;9.13;;
70545;SDS011;58098;51.680;5.134;2023-12-14T11:39:19;14.43;;;8.68;;
70545;SDS011;58098;51.680;5.134;2023-12-14T11:41:59;13.90;;;8.80;;
70545;SDS011;58098;51.680;5.134;2023-12-14T11:44:27;13.70;;;8.80;;
70545;SDS011;58098;51.680;5.134;2023-12-14T11:46:52;12.60;;;8.57;;
70545;SDS011;58098;51.680;5.134;2023-12-14T11:49:17;13.38;;;8.88;;
70545;SDS011;58098;51.680;5.134;2023-12-14T11:51:45;17.47;;;9.73;;
70545;SDS011;58098;51.680;5.134;2023-12-14T11:54:11;14.43;;;9.10;;
70545;SDS011;58098;51.680;5.134;2023-12-14T11:56:36;13.35;;;8.70;;
70545;SDS011;58098;51.680;5.134;2023-12-14T11:59:02;11.93;;;8.47;;
70545;SDS011;58098;51.680;5.134;2023-12-14T12:01:27;14.17;;;9.00;;
70545;SDS011;58098;51.680;5.134;2023-12-14T12:03:53;12.53;;;8.53;;
70545;SDS011;58098;51.680;5.134;2023-12-14T12:06:22;12.73;;;7.82;;
70545;SDS011;58098;51.680;5.134;2023-12-14T12:08:48;13.10;;;7.87;;
70545;SDS011;58098;51.680;5.134;2023-12-14T12:11:20;13.48;;;7.38;;
70545;SDS011;58098;51.680;5.134;2023-12-14T12:13:54;12.73;;;7.47;;
70545;SDS011;58098;51.680;5.134;2023-12-14T12:16:20;12.40;;;8.35;;
70545;SDS011;58098;51.680;5.134;2023-12-14T12:18:46;12.32;;;8.35;;
70545;SDS011;58098;51.680;5.134;2023-12-14T12:21:12;12.13;;;8.23;;
70545;SDS011;58098;51.680;5.134;2023-12-14T12:23:38;10.05;;;6.95;;
70545;SDS011;58098;51.680;5.134;2023-12-14T12:26:03;12.20;;;8.37;;
70545;SDS011;58098;51.680;5.134;2023-12-14T12:28:29;13.40;;;9.03;;
70545;SDS011;58098;51.680;5.134;2023-12-14T12:30:55;11.80;;;7.43;;
70545;SDS011;58098;51.680;5.134;2023-12-14T12:33:21;13.23;;;8.98;;
70545;SDS011;58098;51.680;5.134;2023-12-14T12:35:46;12.03;;;7.37;;
70545;SDS011;58098;51.680;5.134;2023-12-14T12:38:12;12.67;;;7.27;;
70545;SDS011;58098;51.680;5.134;2023-12-14T12:40:37;13.77;;;9.07;;
70545;SDS011;58098;51.680;5.134;2023-12-14T12:43:03;14.40;;;8.65;;
70545;SDS011;58098;51.680;5.134;2023-12-14T12:45:28;17.60;;;9.33;;
70545;SDS011;58098;51.680;5.134;2023-12-14T12:47:54;17.77;;;9.10;;
70545;SDS011;58098;51.680;5.134;2023-12-14T12:50:19;15.90;;;8.97;;
70545;SDS011;58098;51.680;5.134;2023-12-14T12:52:48;14.57;;;9.35;;
70545;SDS011;58098;51.680;5.134;2023-12-14T12:55:14;13.57;;;8.32;;
70545;SDS011;58098;51.680;5.134;2023-12-14T12:57:40;14.83;;;8.70;;
70545;SDS011;58098;51.680;5.134;2023-12-14T13:00:06;12.73;;;8.90;;
70545;SDS011;58098;51.680;5.134;2023-12-14T13:02:36;14.82;;;9.30;;
70545;SDS011;58098;51.680;5.134;2023-12-14T13:05:05;14.20;;;9.10;;
70545;SDS011;58098;51.680;5.134;2023-12-14T13:07:32;12.07;;;8.73;;
70545;SDS011;58098;51.680;5.134;2023-12-14T13:09:58;16.37;;;9.03;;
70545;SDS011;58098;51.680;5.134;2023-12-14T13:12:23;13.00;;;9.33;;
70545;SDS011;58098;51.680;5.134;2023-12-14T13:14:48;17.13;;;10.00;;
70545;SDS011;58098;51.680;5.134;2023-12-14T13:17:14;15.63;;;9.60;;
70545;SDS011;58098;51.680;5.134;2023-12-14T13:19:42;14.47;;;9.77;;
70545;SDS011;58098;51.680;5.134;2023-12-14T13:22:08;14.75;;;9.13;;
70545;SDS011;58098;51.680;5.134;2023-12-14T13:24:36;16.92;;;9.23;;
70545;SDS011;58098;51.680;5.134;2023-12-14T13:27:01;14.67;;;8.67;;
70545;SDS011;58098;51.680;5.134;2023-12-14T13:29:27;14.27;;;8.23;;
70545;SDS011;58098;51.680;5.134;2023-12-14T13:31:52;11.47;;;8.00;;
70545;SDS011;58098;51.680;5.134;2023-12-14T13:34:17;15.37;;;8.87;;
70545;SDS011;58098;51.680;5.134;2023-12-14T13:36:43;14.03;;;8.37;;
70545;SDS011;58098;51.680;5.134;2023-12-14T13:39:08;14.67;;;8.80;;
70545;SDS011;58098;51.680;5.134;2023-12-14T13:41:34;15.27;;;8.80;;
70545;SDS011;58098;51.680;5.134;2023-12-14T13:44:00;14.07;;;8.80;;
70545;SDS011;58098;51.680;5.134;2023-12-14T13:46:25;13.73;;;8.32;;
70545;SDS011;58098;51.680;5.134;2023-12-14T13:48:51;15.83;;;9.77;;
70545;SDS011;58098;51.680;5.134;2023-12-14T13:51:18;14.88;;;9.43;;
70545;SDS011;58098;51.680;5.134;2023-12-14T13:53:43;15.83;;;9.50;;
70545;SDS011;58098;51.680;5.134;2023-12-14T13:56:08;17.03;;;9.43;;
70545;SDS011;58098;51.680;5.134;2023-12-14T13:58:34;13.85;;;9.07;;
70545;SDS011;58098;51.680;5.134;2023-12-14T14:01:02;14.13;;;8.70;;
70545;SDS011;58098;51.680;5.134;2023-12-14T14:03:27;14.93;;;9.05;;
70545;SDS011;58098;51.680;5.134;2023-12-14T14:05:53;17.20;;;9.70;;
70545;SDS011;58098;51.680;5.134;2023-12-14T14:08:18;16.70;;;9.50;;
70545;SDS011;58098;51.680;5.134;2023-12-14T14:10:45;14.77;;;9.07;;
70545;SDS011;58098;51.680;5.134;2023-12-14T14:13:10;16.23;;;9.53;;
70545;SDS011;58098;51.680;5.134;2023-12-14T14:15:35;15.37;;;8.73;;
70545;SDS011;58098;51.680;5.134;2023-12-14T14:18:01;17.23;;;9.17;;
70545;SDS011;58098;51.680;5.134;2023-12-14T14:20:26;19.33;;;8.90;;
70545;SDS011;58098;51.680;5.134;2023-12-14T14:22:51;18.02;;;9.48;;
70545;SDS011;58098;51.680;5.134;2023-12-14T14:25:17;16.57;;;9.47;;
70545;SDS011;58098;51.680;5.134;2023-12-14T14:27:43;16.63;;;9.30;;